Cloverdale, OR

3:15 AM PDT on August 23, 2014 (GMT -0700)
Newport Municipal | Change Station
CLOSE
Current Station
Airport
Location: Newport Airport,
Elevation: 157 ft
Nearby Weather Stations

Elev 157 ft 44.58 °N, 124.06 °W | Updated 20 minutes ago

Mist
Mist
48 °F
Feels Like 48 °F
N
0
Wind Variable Wind from North

Today
High -- | Low -- °F
--% Chance of Precip.
Yesterday
High -- | Low -- °F
Precip. -- in
6:26 AM 8:08 PM
Waning Crescent, 4% visible
Pressure 30.13 in
Visibility 2.5 miles
Clouds
Dew Point 46 °F
Humidity 93%
Rainfall 0.00 in
Snow Depth Not available.
UV Not available.
Pollen 3.60 out of 12
Air Quality Not available.
Flu Activity Not available.
METAR KONP 230955Z AUTO 00000KT 2 1/2SM BR 09/08 A3013 RMK AO2 SKY OBSCURED VIS 1V5

More Conditions Fewer Conditions

Pressure 30.13 in
Visibility 2.5 miles
Clouds
Dew Point 46 °F
Humidity 93%
Rainfall 0.00 in
Snow Depth Not available.
UV Not available.
Pollen 3.60 out of 12
Air Quality Not available.
Flu Activity Not available.
METAR KONP 230955Z AUTO 00000KT 2 1/2SM BR 09/08 A3013 RMK AO2 SKY OBSCURED VIS 1V5

More Conditions Fewer Conditions

10-Day Weather Forecast

Almanac

Astronomy

Aug. 23, 2014 Rise Set
Actual Time 6:26 AM PDT 8:08 PM PDT
Civil Twilight 5:55 AM PDT 8:40 PM PDT
Nautical Twilight 5:17 AM PDT 9:17 PM PDT
Astronomical Twilight 4:36 AM PDT 9:58 PM PDT
Moon 4:46 AM PDT 6:57 PM PDT
Length of Visible Light 14h 44m
Length of Day
13h 42m
Tomorrow will be 2m 58s shorter.
Waning Crescent, 4% of the Moon is Illuminated
Today
Waning Crescent
Aug 25
New
Sep 2
First Quarter
Sep 8
Full
Sep 15
Last Quarter

Today's Extremes

State Highs State Lows

Community

WunderPhotos

Upload Photos

1,746,396 photos uploaded!

WunderBlogs® & News

By Dr. Jeff Masters
Director of Meteorology, Weather Underground
By Kari Strenfel
Meteorologist, Weather Underground
By Christopher C. Burt
Weather Historian, Weather Underground
August 23, 2014
August 23, 2014
August 23, 2014

Nearby

Snow Depth

Station Depth Elevation
Seine Creek 0 in 2000 ft
North Fork 1 in 3120 ft
Peavine Ridge 0 in 3500 ft
Daly Lake 0 in 3600 ft
Blazed Alder 0 in 3650 ft

Earthquake Activity

City Distance Mag. Time & Date
No recent earthquake activity has been reported nearby.
Minimum magnitude displayed is 2.5.

Coastal Water Temperatures

Place Temperature
Astoria, OR 68.0 °F
Westport, WA 57.0 °F

Nearby Weather Stations